sensor_id;sensor_type;location;lat;lon;timestamp;P1;durP1;ratioP1;P2;durP2;ratioP2
13483;SDS011;6814;57.786;12.080;2023-05-10T00:00:53;4.23;;;2.80;;
13483;SDS011;6814;57.786;12.080;2023-05-10T00:03:20;2.97;;;2.77;;
13483;SDS011;6814;57.786;12.080;2023-05-10T00:05:47;6.17;;;2.90;;
13483;SDS011;6814;57.786;12.080;2023-05-10T00:08:14;4.30;;;3.20;;
13483;SDS011;6814;57.786;12.080;2023-05-10T00:10:40;7.57;;;3.20;;
13483;SDS011;6814;57.786;12.080;2023-05-10T00:13:07;3.07;;;2.80;;
13483;SDS011;6814;57.786;12.080;2023-05-10T00:15:33;4.60;;;3.20;;
13483;SDS011;6814;57.786;12.080;2023-05-10T00:18:00;5.17;;;3.40;;
13483;SDS011;6814;57.786;12.080;2023-05-10T00:20:26;4.57;;;3.07;;
13483;SDS011;6814;57.786;12.080;2023-05-10T00:22:54;3.40;;;3.10;;
13483;SDS011;6814;57.786;12.080;2023-05-10T00:25:21;4.57;;;3.10;;
13483;SDS011;6814;57.786;12.080;2023-05-10T00:27:47;3.00;;;2.67;;
13483;SDS011;6814;57.786;12.080;2023-05-10T00:30:14;3.30;;;2.80;;
13483;SDS011;6814;57.786;12.080;2023-05-10T00:32:41;6.63;;;3.23;;
13483;SDS011;6814;57.786;12.080;2023-05-10T00:35:08;3.50;;;3.20;;
13483;SDS011;6814;57.786;12.080;2023-05-10T00:37:34;3.50;;;2.87;;
13483;SDS011;6814;57.786;12.080;2023-05-10T00:40:02;6.07;;;2.97;;
13483;SDS011;6814;57.786;12.080;2023-05-10T00:42:29;5.40;;;3.00;;
13483;SDS011;6814;57.786;12.080;2023-05-10T00:44:56;3.63;;;3.30;;
13483;SDS011;6814;57.786;12.080;2023-05-10T00:47:22;3.57;;;3.13;;
13483;SDS011;6814;57.786;12.080;2023-05-10T00:49:49;5.37;;;3.00;;
13483;SDS011;6814;57.786;12.080;2023-05-10T00:52:15;3.10;;;2.90;;
13483;SDS011;6814;57.786;12.080;2023-05-10T00:54:42;3.67;;;3.37;;
13483;SDS011;6814;57.786;12.080;2023-05-10T00:57:10;6.27;;;3.43;;
13483;SDS011;6814;57.786;12.080;2023-05-10T00:59:36;3.30;;;3.00;;
13483;SDS011;6814;57.786;12.080;2023-05-10T01:02:02;4.87;;;3.23;;
13483;SDS011;6814;57.786;12.080;2023-05-10T01:04:29;5.60;;;3.00;;
13483;SDS011;6814;57.786;12.080;2023-05-10T01:06:56;3.30;;;3.00;;
13483;SDS011;6814;57.786;12.080;2023-05-10T01:09:22;4.90;;;3.20;;
13483;SDS011;6814;57.786;12.080;2023-05-10T01:11:51;4.13;;;3.20;;
13483;SDS011;6814;57.786;12.080;2023-05-10T01:14:19;3.53;;;3.20;;
13483;SDS011;6814;57.786;12.080;2023-05-10T01:16:46;3.20;;;2.90;;
13483;SDS011;6814;57.786;12.080;2023-05-10T01:19:16;3.57;;;2.93;;
13483;SDS011;6814;57.786;12.080;2023-05-10T01:21:45;3.27;;;2.97;;
13483;SDS011;6814;57.786;12.080;2023-05-10T01:27:08;5.10;;;3.67;;
13483;SDS011;6814;57.786;12.080;2023-05-10T01:29:49;3.60;;;3.30;;
13483;SDS011;6814;57.786;12.080;2023-05-10T01:32:22;4.07;;;2.97;;
13483;SDS011;6814;57.786;12.080;2023-05-10T01:34:54;5.07;;;3.10;;
13483;SDS011;6814;57.786;12.080;2023-05-10T01:37:25;5.90;;;3.40;;
13483;SDS011;6814;57.786;12.080;2023-05-10T01:39:55;6.57;;;3.30;;
13483;SDS011;6814;57.786;12.080;2023-05-10T01:42:25;3.57;;;3.27;;
13483;SDS011;6814;57.786;12.080;2023-05-10T01:44:54;3.27;;;3.03;;
13483;SDS011;6814;57.786;12.080;2023-05-10T01:47:26;6.07;;;3.27;;
13483;SDS011;6814;57.786;12.080;2023-05-10T01:49:55;4.67;;;3.00;;
13483;SDS011;6814;57.786;12.080;2023-05-10T01:52:23;3.60;;;3.10;;
13483;SDS011;6814;57.786;12.080;2023-05-10T01:54:52;4.50;;;3.40;;
13483;SDS011;6814;57.786;12.080;2023-05-10T01:57:19;5.70;;;3.53;;
13483;SDS011;6814;57.786;12.080;2023-05-10T01:59:47;6.40;;;3.50;;
13483;SDS011;6814;57.786;12.080;2023-05-10T02:02:15;3.70;;;3.17;;
13483;SDS011;6814;57.786;12.080;2023-05-10T02:04:44;5.60;;;3.50;;
13483;SDS011;6814;57.786;12.080;2023-05-10T02:07:11;4.73;;;3.20;;
13483;SDS011;6814;57.786;12.080;2023-05-10T02:09:38;3.50;;;3.20;;
13483;SDS011;6814;57.786;12.080;2023-05-10T02:12:05;3.47;;;2.93;;
13483;SDS011;6814;57.786;12.080;2023-05-10T02:14:34;4.53;;;3.17;;
13483;SDS011;6814;57.786;12.080;2023-05-10T02:17:01;3.93;;;2.73;;
13483;SDS011;6814;57.786;12.080;2023-05-10T02:19:28;3.93;;;3.33;;
13483;SDS011;6814;57.786;12.080;2023-05-10T02:21:56;3.30;;;3.10;;
13483;SDS011;6814;57.786;12.080;2023-05-10T02:24:23;3.63;;;3.33;;
13483;SDS011;6814;57.786;12.080;2023-05-10T02:26:50;3.63;;;3.33;;
13483;SDS011;6814;57.786;12.080;2023-05-10T02:29:17;3.93;;;3.40;;
13483;SDS011;6814;57.786;12.080;2023-05-10T02:31:45;7.33;;;3.40;;
13483;SDS011;6814;57.786;12.080;2023-05-10T02:34:11;3.93;;;3.17;;
13483;SDS011;6814;57.786;12.080;2023-05-10T02:36:38;6.20;;;3.20;;
13483;SDS011;6814;57.786;12.080;2023-05-10T02:39:07;5.90;;;4.07;;
13483;SDS011;6814;57.786;12.080;2023-05-10T02:41:35;3.57;;;3.27;;
13483;SDS011;6814;57.786;12.080;2023-05-10T02:44:02;5.90;;;3.27;;
13483;SDS011;6814;57.786;12.080;2023-05-10T02:46:28;5.87;;;2.90;;
13483;SDS011;6814;57.786;12.080;2023-05-10T02:48:55;6.03;;;3.10;;
13483;SDS011;6814;57.786;12.080;2023-05-10T02:51:21;4.40;;;3.17;;
13483;SDS011;6814;57.786;12.080;2023-05-10T02:53:50;4.00;;;3.30;;
13483;SDS011;6814;57.786;12.080;2023-05-10T02:56:23;5.10;;;3.40;;
13483;SDS011;6814;57.786;12.080;2023-05-10T02:58:50;3.37;;;3.07;;
13483;SDS011;6814;57.786;12.080;2023-05-10T03:01:16;5.10;;;3.50;;
13483;SDS011;6814;57.786;12.080;2023-05-10T03:03:43;3.57;;;3.27;;
13483;SDS011;6814;57.786;12.080;2023-05-10T03:06:09;5.50;;;3.40;;
13483;SDS011;6814;57.786;12.080;2023-05-10T03:08:35;3.97;;;3.13;;
13483;SDS011;6814;57.786;12.080;2023-05-10T03:11:09;4.50;;;3.33;;
13483;SDS011;6814;57.786;12.080;2023-05-10T03:13:45;7.30;;;3.73;;
13483;SDS011;6814;57.786;12.080;2023-05-10T03:16:15;4.33;;;3.23;;
13483;SDS011;6814;57.786;12.080;2023-05-10T03:18:44;6.40;;;3.30;;
13483;SDS011;6814;57.786;12.080;2023-05-10T03:21:11;3.47;;;3.13;;
13483;SDS011;6814;57.786;12.080;2023-05-10T03:23:40;5.53;;;3.30;;
13483;SDS011;6814;57.786;12.080;2023-05-10T03:26:07;4.33;;;3.10;;
13483;SDS011;6814;57.786;12.080;2023-05-10T03:28:34;3.60;;;3.03;;
13483;SDS011;6814;57.786;12.080;2023-05-10T03:31:02;4.53;;;3.20;;
13483;SDS011;6814;57.786;12.080;2023-05-10T03:33:28;6.17;;;3.63;;
13483;SDS011;6814;57.786;12.080;2023-05-10T03:35:55;4.27;;;3.63;;
13483;SDS011;6814;57.786;12.080;2023-05-10T03:38:21;3.57;;;3.27;;
13483;SDS011;6814;57.786;12.080;2023-05-10T03:40:48;3.97;;;3.57;;
13483;SDS011;6814;57.786;12.080;2023-05-10T03:43:14;5.13;;;3.37;;
13483;SDS011;6814;57.786;12.080;2023-05-10T03:45:40;3.83;;;3.30;;
13483;SDS011;6814;57.786;12.080;2023-05-10T03:48:09;4.97;;;3.50;;
13483;SDS011;6814;57.786;12.080;2023-05-10T03:50:35;4.43;;;3.33;;
13483;SDS011;6814;57.786;12.080;2023-05-10T03:53:01;3.37;;;3.07;;
13483;SDS011;6814;57.786;12.080;2023-05-10T03:55:28;3.87;;;3.30;;
13483;SDS011;6814;57.786;12.080;2023-05-10T03:57:54;3.90;;;3.20;;
13483;SDS011;6814;57.786;12.080;2023-05-10T04:00:21;3.53;;;3.20;;
13483;SDS011;6814;57.786;12.080;2023-05-10T04:02:47;3.67;;;3.33;;
13483;SDS011;6814;57.786;12.080;2023-05-10T04:05:15;5.13;;;3.60;;
13483;SDS011;6814;57.786;12.080;2023-05-10T04:07:41;5.27;;;3.57;;
13483;SDS011;6814;57.786;12.080;2023-05-10T04:10:10;7.23;;;3.77;;
13483;SDS011;6814;57.786;12.080;2023-05-10T04:12:36;6.47;;;3.43;;
13483;SDS011;6814;57.786;12.080;2023-05-10T04:15:03;5.53;;;3.23;;
13483;SDS011;6814;57.786;12.080;2023-05-10T04:17:29;3.73;;;3.33;;
13483;SDS011;6814;57.786;12.080;2023-05-10T04:19:56;3.70;;;3.40;;
13483;SDS011;6814;57.786;12.080;2023-05-10T04:22:24;4.43;;;3.40;;
13483;SDS011;6814;57.786;12.080;2023-05-10T04:24:50;8.83;;;4.00;;
13483;SDS011;6814;57.786;12.080;2023-05-10T04:27:16;5.43;;;3.37;;
13483;SDS011;6814;57.786;12.080;2023-05-10T04:29:43;5.23;;;4.50;;
13483;SDS011;6814;57.786;12.080;2023-05-10T04:32:09;3.97;;;3.20;;
13483;SDS011;6814;57.786;12.080;2023-05-10T04:34:36;4.87;;;3.70;;
13483;SDS011;6814;57.786;12.080;2023-05-10T04:37:02;5.17;;;3.00;;
13483;SDS011;6814;57.786;12.080;2023-05-10T04:39:30;4.60;;;3.70;;
13483;SDS011;6814;57.786;12.080;2023-05-10T04:41:57;5.80;;;3.40;;
13483;SDS011;6814;57.786;12.080;2023-05-10T04:44:23;6.13;;;3.40;;
13483;SDS011;6814;57.786;12.080;2023-05-10T04:46:50;3.40;;;3.10;;
13483;SDS011;6814;57.786;12.080;2023-05-10T04:49:16;5.70;;;3.10;;
13483;SDS011;6814;57.786;12.080;2023-05-10T04:51:42;4.03;;;3.63;;
13483;SDS011;6814;57.786;12.080;2023-05-10T04:54:09;5.47;;;3.40;;
13483;SDS011;6814;57.786;12.080;2023-05-10T04:56:37;5.67;;;4.00;;
13483;SDS011;6814;57.786;12.080;2023-05-10T04:59:03;7.93;;;3.83;;
13483;SDS011;6814;57.786;12.080;2023-05-10T05:01:29;4.13;;;3.27;;
13483;SDS011;6814;57.786;12.080;2023-05-10T05:03:56;4.83;;;3.67;;
13483;SDS011;6814;57.786;12.080;2023-05-10T05:06:22;4.70;;;3.30;;
13483;SDS011;6814;57.786;12.080;2023-05-10T05:08:49;4.83;;;3.17;;
13483;SDS011;6814;57.786;12.080;2023-05-10T05:11:16;4.17;;;3.43;;
13483;SDS011;6814;57.786;12.080;2023-05-10T05:13:44;3.77;;;3.43;;
13483;SDS011;6814;57.786;12.080;2023-05-10T05:16:10;4.30;;;3.43;;
13483;SDS011;6814;57.786;12.080;2023-05-10T05:18:37;6.33;;;3.47;;
13483;SDS011;6814;57.786;12.080;2023-05-10T05:21:12;6.10;;;3.40;;
13483;SDS011;6814;57.786;12.080;2023-05-10T05:23:39;3.90;;;3.00;;
13483;SDS011;6814;57.786;12.080;2023-05-10T05:26:05;4.63;;;3.47;;
13483;SDS011;6814;57.786;12.080;2023-05-10T05:28:32;4.17;;;2.93;;
13483;SDS011;6814;57.786;12.080;2023-05-10T05:31:03;5.13;;;3.67;;
13483;SDS011;6814;57.786;12.080;2023-05-10T05:33:30;5.43;;;3.33;;
13483;SDS011;6814;57.786;12.080;2023-05-10T05:36:00;6.70;;;3.50;;
13483;SDS011;6814;57.786;12.080;2023-05-10T05:38:27;6.40;;;3.43;;
13483;SDS011;6814;57.786;12.080;2023-05-10T05:40:54;4.30;;;3.23;;
13483;SDS011;6814;57.786;12.080;2023-05-10T05:43:20;4.27;;;3.23;;
13483;SDS011;6814;57.786;12.080;2023-05-10T05:45:48;5.67;;;3.33;;
13483;SDS011;6814;57.786;12.080;2023-05-10T05:48:17;3.47;;;3.17;;
13483;SDS011;6814;57.786;12.080;2023-05-10T05:50:44;7.67;;;3.50;;
13483;SDS011;6814;57.786;12.080;2023-05-10T05:53:11;5.10;;;3.70;;
13483;SDS011;6814;57.786;12.080;2023-05-10T05:55:38;6.67;;;3.13;;
13483;SDS011;6814;57.786;12.080;2023-05-10T05:58:04;6.90;;;3.60;;
13483;SDS011;6814;57.786;12.080;2023-05-10T06:00:31;4.33;;;3.40;;
13483;SDS011;6814;57.786;12.080;2023-05-10T06:03:02;4.37;;;3.07;;
13483;SDS011;6814;57.786;12.080;2023-05-10T06:05:30;4.00;;;3.30;;
13483;SDS011;6814;57.786;12.080;2023-05-10T06:07:58;3.90;;;3.30;;
13483;SDS011;6814;57.786;12.080;2023-05-10T06:10:26;3.50;;;3.03;;
13483;SDS011;6814;57.786;12.080;2023-05-10T06:12:53;6.50;;;3.47;;
13483;SDS011;6814;57.786;12.080;2023-05-10T06:15:20;5.00;;;3.60;;
13483;SDS011;6814;57.786;12.080;2023-05-10T06:17:47;7.73;;;3.43;;
13483;SDS011;6814;57.786;12.080;2023-05-10T06:20:14;4.53;;;3.43;;
13483;SDS011;6814;57.786;12.080;2023-05-10T06:22:42;6.53;;;3.47;;
13483;SDS011;6814;57.786;12.080;2023-05-10T06:25:09;5.30;;;3.03;;
13483;SDS011;6814;57.786;12.080;2023-05-10T06:27:42;4.30;;;3.20;;
13483;SDS011;6814;57.786;12.080;2023-05-10T06:30:12;6.63;;;3.33;;
13483;SDS011;6814;57.786;12.080;2023-05-10T06:32:40;7.50;;;3.27;;
13483;SDS011;6814;57.786;12.080;2023-05-10T06:35:10;4.87;;;3.40;;
13483;SDS011;6814;57.786;12.080;2023-05-10T06:37:36;5.33;;;3.00;;
13483;SDS011;6814;57.786;12.080;2023-05-10T06:40:05;3.50;;;3.20;;
13483;SDS011;6814;57.786;12.080;2023-05-10T06:42:32;3.73;;;3.33;;
13483;SDS011;6814;57.786;12.080;2023-05-10T06:44:58;3.27;;;2.97;;
13483;SDS011;6814;57.786;12.080;2023-05-10T06:47:25;3.47;;;3.17;;
13483;SDS011;6814;57.786;12.080;2023-05-10T06:49:52;5.00;;;3.10;;
13483;SDS011;6814;57.786;12.080;2023-05-10T06:52:18;3.57;;;3.27;;
13483;SDS011;6814;57.786;12.080;2023-05-10T06:54:45;5.27;;;3.10;;
13483;SDS011;6814;57.786;12.080;2023-05-10T06:57:13;6.70;;;3.23;;
13483;SDS011;6814;57.786;12.080;2023-05-10T06:59:39;4.00;;;3.20;;
13483;SDS011;6814;57.786;12.080;2023-05-10T07:02:06;6.33;;;3.30;;
13483;SDS011;6814;57.786;12.080;2023-05-10T07:04:33;3.63;;;3.33;;
13483;SDS011;6814;57.786;12.080;2023-05-10T07:06:59;5.90;;;3.10;;
13483;SDS011;6814;57.786;12.080;2023-05-10T07:09:26;7.10;;;3.30;;
13483;SDS011;6814;57.786;12.080;2023-05-10T07:11:53;4.87;;;3.10;;
13483;SDS011;6814;57.786;12.080;2023-05-10T07:14:21;4.63;;;3.60;;
13483;SDS011;6814;57.786;12.080;2023-05-10T07:16:47;3.17;;;2.87;;
13483;SDS011;6814;57.786;12.080;2023-05-10T07:19:14;3.20;;;2.77;;
13483;SDS011;6814;57.786;12.080;2023-05-10T07:21:40;3.90;;;3.17;;
13483;SDS011;6814;57.786;12.080;2023-05-10T07:24:08;3.27;;;2.97;;
13483;SDS011;6814;57.786;12.080;2023-05-10T07:26:34;3.70;;;3.40;;
13483;SDS011;6814;57.786;12.080;2023-05-10T07:29:01;4.20;;;2.77;;
13483;SDS011;6814;57.786;12.080;2023-05-10T07:31:29;7.27;;;3.27;;
13483;SDS011;6814;57.786;12.080;2023-05-10T07:33:56;5.50;;;3.40;;
13483;SDS011;6814;57.786;12.080;2023-05-10T07:36:22;3.27;;;3.07;;
13483;SDS011;6814;57.786;12.080;2023-05-10T07:38:49;4.70;;;3.63;;
13483;SDS011;6814;57.786;12.080;2023-05-10T07:41:16;4.77;;;3.33;;
13483;SDS011;6814;57.786;12.080;2023-05-10T07:43:42;3.60;;;3.20;;
13483;SDS011;6814;57.786;12.080;2023-05-10T07:46:09;7.43;;;3.60;;
13483;SDS011;6814;57.786;12.080;2023-05-10T07:48:38;10.57;;;3.60;;
13483;SDS011;6814;57.786;12.080;2023-05-10T07:51:04;4.53;;;3.00;;
13483;SDS011;6814;57.786;12.080;2023-05-10T07:53:33;3.77;;;2.80;;
13483;SDS011;6814;57.786;12.080;2023-05-10T07:56:19;4.07;;;3.07;;
13483;SDS011;6814;57.786;12.080;2023-05-10T07:58:50;4.13;;;3.33;;
13483;SDS011;6814;57.786;12.080;2023-05-10T08:01:16;4.27;;;3.30;;
13483;SDS011;6814;57.786;12.080;2023-05-10T08:03:44;4.37;;;3.40;;
13483;SDS011;6814;57.786;12.080;2023-05-10T08:06:10;6.33;;;3.57;;
13483;SDS011;6814;57.786;12.080;2023-05-10T08:08:37;6.13;;;3.30;;
13483;SDS011;6814;57.786;12.080;2023-05-10T08:11:03;4.87;;;3.20;;
13483;SDS011;6814;57.786;12.080;2023-05-10T08:13:30;5.33;;;3.20;;
13483;SDS011;6814;57.786;12.080;2023-05-10T08:15:59;3.50;;;3.00;;
13483;SDS011;6814;57.786;12.080;2023-05-10T08:18:25;4.67;;;3.37;;
13483;SDS011;6814;57.786;12.080;2023-05-10T08:20:54;6.40;;;3.37;;
13483;SDS011;6814;57.786;12.080;2023-05-10T08:23:20;4.60;;;3.30;;
13483;SDS011;6814;57.786;12.080;2023-05-10T08:25:46;3.50;;;3.20;;
13483;SDS011;6814;57.786;12.080;2023-05-10T08:28:13;8.83;;;3.33;;
13483;SDS011;6814;57.786;12.080;2023-05-10T08:30:40;4.27;;;2.90;;
13483;SDS011;6814;57.786;12.080;2023-05-10T08:33:06;4.23;;;3.40;;
13483;SDS011;6814;57.786;12.080;2023-05-10T08:35:32;4.23;;;3.17;;
13483;SDS011;6814;57.786;12.080;2023-05-10T08:38:01;5.43;;;3.27;;
13483;SDS011;6814;57.786;12.080;2023-05-10T08:40:27;10.13;;;3.20;;
13483;SDS011;6814;57.786;12.080;2023-05-10T08:42:55;6.07;;;3.20;;
13483;SDS011;6814;57.786;12.080;2023-05-10T08:45:23;7.10;;;3.10;;
13483;SDS011;6814;57.786;12.080;2023-05-10T08:47:50;5.13;;;3.17;;
13483;SDS011;6814;57.786;12.080;2023-05-10T08:50:18;3.53;;;3.00;;
13483;SDS011;6814;57.786;12.080;2023-05-10T08:52:46;3.20;;;3.00;;
13483;SDS011;6814;57.786;12.080;2023-05-10T08:55:16;3.50;;;3.13;;
13483;SDS011;6814;57.786;12.080;2023-05-10T08:57:42;4.67;;;3.00;;
13483;SDS011;6814;57.786;12.080;2023-05-10T09:00:09;3.17;;;2.93;;
13483;SDS011;6814;57.786;12.080;2023-05-10T09:02:36;3.63;;;2.90;;
13483;SDS011;6814;57.786;12.080;2023-05-10T09:05:03;7.47;;;4.10;;
13483;SDS011;6814;57.786;12.080;2023-05-10T09:07:30;3.63;;;3.23;;
13483;SDS011;6814;57.786;12.080;2023-05-10T09:09:57;4.87;;;3.10;;
13483;SDS011;6814;57.786;12.080;2023-05-10T09:12:25;4.03;;;2.80;;
13483;SDS011;6814;57.786;12.080;2023-05-10T09:14:53;4.87;;;2.93;;
13483;SDS011;6814;57.786;12.080;2023-05-10T09:17:20;5.57;;;3.10;;
13483;SDS011;6814;57.786;12.080;2023-05-10T09:19:47;5.73;;;3.27;;
13483;SDS011;6814;57.786;12.080;2023-05-10T09:22:13;4.57;;;3.10;;
13483;SDS011;6814;57.786;12.080;2023-05-10T09:24:40;3.97;;;2.80;;
13483;SDS011;6814;57.786;12.080;2023-05-10T09:27:10;3.37;;;2.70;;
13483;SDS011;6814;57.786;12.080;2023-05-10T09:29:41;3.40;;;3.20;;
13483;SDS011;6814;57.786;12.080;2023-05-10T09:32:08;3.40;;;3.10;;
13483;SDS011;6814;57.786;12.080;2023-05-10T09:34:34;3.30;;;3.00;;
13483;SDS011;6814;57.786;12.080;2023-05-10T09:37:04;4.93;;;3.03;;
13483;SDS011;6814;57.786;12.080;2023-05-10T09:39:31;4.77;;;2.90;;
13483;SDS011;6814;57.786;12.080;2023-05-10T09:41:58;5.63;;;3.30;;
13483;SDS011;6814;57.786;12.080;2023-05-10T09:44:25;3.63;;;2.90;;
13483;SDS011;6814;57.786;12.080;2023-05-10T09:46:54;5.90;;;3.03;;
13483;SDS011;6814;57.786;12.080;2023-05-10T09:49:20;3.63;;;3.30;;
13483;SDS011;6814;57.786;12.080;2023-05-10T09:51:47;4.57;;;3.10;;
13483;SDS011;6814;57.786;12.080;2023-05-10T09:54:14;8.80;;;3.47;;
13483;SDS011;6814;57.786;12.080;2023-05-10T09:56:41;3.67;;;2.87;;
13483;SDS011;6814;57.786;12.080;2023-05-10T09:59:09;3.43;;;2.97;;
13483;SDS011;6814;57.786;12.080;2023-05-10T10:01:38;6.40;;;3.23;;
13483;SDS011;6814;57.786;12.080;2023-05-10T10:04:11;2.80;;;2.70;;
13483;SDS011;6814;57.786;12.080;2023-05-10T10:06:38;3.53;;;3.10;;
13483;SDS011;6814;57.786;12.080;2023-05-10T10:09:05;6.37;;;3.03;;
13483;SDS011;6814;57.786;12.080;2023-05-10T10:11:33;4.63;;;3.00;;
13483;SDS011;6814;57.786;12.080;2023-05-10T10:14:00;3.90;;;3.03;;
13483;SDS011;6814;57.786;12.080;2023-05-10T10:16:26;3.17;;;2.93;;
13483;SDS011;6814;57.786;12.080;2023-05-10T10:18:53;3.10;;;2.73;;
13483;SDS011;6814;57.786;12.080;2023-05-10T10:21:21;3.27;;;2.97;;
13483;SDS011;6814;57.786;12.080;2023-05-10T10:23:47;4.13;;;2.97;;
13483;SDS011;6814;57.786;12.080;2023-05-10T10:26:14;7.80;;;3.20;;
13483;SDS011;6814;57.786;12.080;2023-05-10T10:28:44;2.83;;;2.60;;
13483;SDS011;6814;57.786;12.080;2023-05-10T10:31:16;4.23;;;3.00;;
13483;SDS011;6814;57.786;12.080;2023-05-10T10:33:55;8.50;;;2.90;;
13483;SDS011;6814;57.786;12.080;2023-05-10T10:36:24;3.87;;;2.73;;
13483;SDS011;6814;57.786;12.080;2023-05-10T10:38:55;3.97;;;2.90;;
13483;SDS011;6814;57.786;12.080;2023-05-10T10:41:29;4.27;;;3.20;;
13483;SDS011;6814;57.786;12.080;2023-05-10T10:49:24;3.53;;;2.97;;
13483;SDS011;6814;57.786;12.080;2023-05-10T10:54:38;4.63;;;3.00;;
13483;SDS011;6814;57.786;12.080;2023-05-10T10:57:10;4.67;;;2.87;;
13483;SDS011;6814;57.786;12.080;2023-05-10T10:59:41;4.50;;;3.10;;
13483;SDS011;6814;57.786;12.080;2023-05-10T11:02:18;3.00;;;2.80;;
13483;SDS011;6814;57.786;12.080;2023-05-10T11:04:58;4.43;;;2.90;;
13483;SDS011;6814;57.786;12.080;2023-05-10T11:07:25;3.10;;;2.80;;
13483;SDS011;6814;57.786;12.080;2023-05-10T11:09:54;3.17;;;2.87;;
13483;SDS011;6814;57.786;12.080;2023-05-10T11:12:21;3.67;;;2.60;;
13483;SDS011;6814;57.786;12.080;2023-05-10T11:14:49;3.07;;;2.87;;
13483;SDS011;6814;57.786;12.080;2023-05-10T11:17:23;4.03;;;2.73;;
13483;SDS011;6814;57.786;12.080;2023-05-10T11:20:06;2.90;;;2.70;;
13483;SDS011;6814;57.786;12.080;2023-05-10T11:22:34;3.93;;;2.60;;
13483;SDS011;6814;57.786;12.080;2023-05-10T11:25:16;4.70;;;2.57;;
13483;SDS011;6814;57.786;12.080;2023-05-10T11:27:42;3.60;;;2.73;;
13483;SDS011;6814;57.786;12.080;2023-05-10T11:30:10;2.70;;;2.50;;
13483;SDS011;6814;57.786;12.080;2023-05-10T11:32:36;4.50;;;2.70;;
13483;SDS011;6814;57.786;12.080;2023-05-10T11:35:06;3.10;;;2.73;;
13483;SDS011;6814;57.786;12.080;2023-05-10T11:37:33;5.47;;;2.60;;
13483;SDS011;6814;57.786;12.080;2023-05-10T11:39:59;4.47;;;2.67;;
13483;SDS011;6814;57.786;12.080;2023-05-10T11:42:28;3.63;;;2.70;;
13483;SDS011;6814;57.786;12.080;2023-05-10T11:44:55;4.63;;;2.70;;
13483;SDS011;6814;57.786;12.080;2023-05-10T11:47:22;3.90;;;2.50;;
13483;SDS011;6814;57.786;12.080;2023-05-10T11:49:48;2.60;;;2.30;;
13483;SDS011;6814;57.786;12.080;2023-05-10T11:52:15;2.60;;;2.40;;
13483;SDS011;6814;57.786;12.080;2023-05-10T11:54:44;3.40;;;2.70;;
13483;SDS011;6814;57.786;12.080;2023-05-10T11:57:11;5.20;;;2.90;;
13483;SDS011;6814;57.786;12.080;2023-05-10T11:59:41;3.17;;;2.50;;
13483;SDS011;6814;57.786;12.080;2023-05-10T12:02:07;2.50;;;2.30;;
13483;SDS011;6814;57.786;12.080;2023-05-10T12:04:34;2.93;;;2.37;;
13483;SDS011;6814;57.786;12.080;2023-05-10T12:07:00;2.97;;;2.30;;
13483;SDS011;6814;57.786;12.080;2023-05-10T12:09:27;4.20;;;2.23;;
13483;SDS011;6814;57.786;12.080;2023-05-10T12:11:55;4.17;;;2.30;;
13483;SDS011;6814;57.786;12.080;2023-05-10T12:14:21;5.40;;;2.40;;
13483;SDS011;6814;57.786;12.080;2023-05-10T12:16:50;4.63;;;2.30;;
13483;SDS011;6814;57.786;12.080;2023-05-10T12:19:18;2.73;;;2.20;;
13483;SDS011;6814;57.786;12.080;2023-05-10T12:21:45;2.50;;;2.30;;
13483;SDS011;6814;57.786;12.080;2023-05-10T12:24:12;2.40;;;2.20;;
13483;SDS011;6814;57.786;12.080;2023-05-10T12:26:41;2.90;;;2.20;;
13483;SDS011;6814;57.786;12.080;2023-05-10T12:29:11;3.23;;;2.40;;
13483;SDS011;6814;57.786;12.080;2023-05-10T12:31:48;3.50;;;2.57;;
13483;SDS011;6814;57.786;12.080;2023-05-10T12:34:23;2.30;;;2.10;;
13483;SDS011;6814;57.786;12.080;2023-05-10T12:36:50;7.23;;;2.77;;
13483;SDS011;6814;57.786;12.080;2023-05-10T12:39:16;4.07;;;2.20;;
13483;SDS011;6814;57.786;12.080;2023-05-10T12:41:43;6.80;;;2.57;;
13483;SDS011;6814;57.786;12.080;2023-05-10T12:44:09;5.70;;;2.50;;
13483;SDS011;6814;57.786;12.080;2023-05-10T12:46:36;3.43;;;2.30;;
13483;SDS011;6814;57.786;12.080;2023-05-10T12:49:02;3.70;;;2.20;;
13483;SDS011;6814;57.786;12.080;2023-05-10T12:51:30;6.83;;;2.60;;
13483;SDS011;6814;57.786;12.080;2023-05-10T12:53:56;4.33;;;2.40;;
13483;SDS011;6814;57.786;12.080;2023-05-10T12:56:23;3.27;;;2.30;;
13483;SDS011;6814;57.786;12.080;2023-05-10T12:58:50;1.97;;;1.83;;
13483;SDS011;6814;57.786;12.080;2023-05-10T13:01:16;2.33;;;2.23;;
13483;SDS011;6814;57.786;12.080;2023-05-10T13:03:43;4.93;;;2.67;;
13483;SDS011;6814;57.786;12.080;2023-05-10T13:06:09;3.17;;;2.20;;
13483;SDS011;6814;57.786;12.080;2023-05-10T13:08:37;2.43;;;2.23;;
13483;SDS011;6814;57.786;12.080;2023-05-10T13:11:05;3.67;;;2.23;;
13483;SDS011;6814;57.786;12.080;2023-05-10T13:13:31;3.27;;;2.60;;
13483;SDS011;6814;57.786;12.080;2023-05-10T13:15:58;3.90;;;2.33;;
13483;SDS011;6814;57.786;12.080;2023-05-10T13:18:25;3.40;;;2.17;;
13483;SDS011;6814;57.786;12.080;2023-05-10T13:20:51;3.57;;;2.10;;
13483;SDS011;6814;57.786;12.080;2023-05-10T13:23:18;4.10;;;2.33;;
13483;SDS011;6814;57.786;12.080;2023-05-10T13:25:47;2.50;;;2.30;;
13483;SDS011;6814;57.786;12.080;2023-05-10T13:28:13;5.43;;;2.20;;
13483;SDS011;6814;57.786;12.080;2023-05-10T13:30:47;2.90;;;2.33;;
13483;SDS011;6814;57.786;12.080;2023-05-10T13:33:14;4.07;;;2.70;;
13483;SDS011;6814;57.786;12.080;2023-05-10T13:35:40;4.97;;;2.30;;
13483;SDS011;6814;57.786;12.080;2023-05-10T13:38:07;3.10;;;2.27;;
13483;SDS011;6814;57.786;12.080;2023-05-10T13:40:34;3.10;;;2.30;;
13483;SDS011;6814;57.786;12.080;2023-05-10T13:43:02;5.63;;;2.00;;
13483;SDS011;6814;57.786;12.080;2023-05-10T13:45:29;3.67;;;1.77;;
13483;SDS011;6814;57.786;12.080;2023-05-10T13:47:56;3.63;;;2.20;;
13483;SDS011;6814;57.786;12.080;2023-05-10T13:50:23;2.27;;;2.13;;
13483;SDS011;6814;57.786;12.080;2023-05-10T13:52:49;4.27;;;2.00;;
13483;SDS011;6814;57.786;12.080;2023-05-10T13:55:16;3.97;;;2.00;;
13483;SDS011;6814;57.786;12.080;2023-05-10T13:57:42;2.90;;;2.00;;
13483;SDS011;6814;57.786;12.080;2023-05-10T14:00:11;2.30;;;1.70;;
13483;SDS011;6814;57.786;12.080;2023-05-10T14:02:37;3.77;;;2.33;;
13483;SDS011;6814;57.786;12.080;2023-05-10T14:05:04;4.00;;;2.10;;
13483;SDS011;6814;57.786;12.080;2023-05-10T14:07:31;2.75;;;1.98;;
13483;SDS011;6814;57.786;12.080;2023-05-10T14:09:58;4.90;;;2.03;;
13483;SDS011;6814;57.786;12.080;2023-05-10T14:12:24;3.60;;;2.00;;
13483;SDS011;6814;57.786;12.080;2023-05-10T14:14:51;2.80;;;1.98;;
13483;SDS011;6814;57.786;12.080;2023-05-10T14:17:19;2.35;;;1.77;;
13483;SDS011;6814;57.786;12.080;2023-05-10T14:19:47;3.42;;;2.28;;
13483;SDS011;6814;57.786;12.080;2023-05-10T14:22:13;2.28;;;2.08;;
13483;SDS011;6814;57.786;12.080;2023-05-10T14:24:40;1.90;;;1.80;;
13483;SDS011;6814;57.786;12.080;2023-05-10T14:27:08;3.47;;;1.92;;
13483;SDS011;6814;57.786;12.080;2023-05-10T14:29:35;3.10;;;1.70;;
13483;SDS011;6814;57.786;12.080;2023-05-10T14:32:01;7.20;;;2.05;;
13483;SDS011;6814;57.786;12.080;2023-05-10T14:34:29;4.97;;;2.10;;
13483;SDS011;6814;57.786;12.080;2023-05-10T14:36:55;6.13;;;2.15;;
13483;SDS011;6814;57.786;12.080;2023-05-10T14:39:22;2.22;;;2.08;;
13483;SDS011;6814;57.786;12.080;2023-05-10T14:41:48;2.08;;;1.77;;
13483;SDS011;6814;57.786;12.080;2023-05-10T14:44:16;1.85;;;1.42;;
13483;SDS011;6814;57.786;12.080;2023-05-10T14:46:42;3.80;;;1.95;;
13483;SDS011;6814;57.786;12.080;2023-05-10T14:49:09;3.13;;;1.83;;
13483;SDS011;6814;57.786;12.080;2023-05-10T14:51:37;2.80;;;2.00;;
13483;SDS011;6814;57.786;12.080;2023-05-10T14:54:03;3.25;;;1.92;;
13483;SDS011;6814;57.786;12.080;2023-05-10T14:56:30;4.72;;;2.15;;
13483;SDS011;6814;57.786;12.080;2023-05-10T14:58:56;2.45;;;1.90;;
13483;SDS011;6814;57.786;12.080;2023-05-10T15:01:23;1.83;;;1.50;;